Time;durP1;ratioP1;P1;durP2;ratioP2;P2;SDS_P1;SDS_P2;PMS_P1;PMS_P2;Temp;Humidity;BMP_temperature;BMP_pressure;BME280_temperature;BME280_humidity;BME280_pressure;Samples;Min_cycle;Max_cycle;Signal;HPM_P1;HPM_P2
2023/01/23 00:01:10;;;;;;;13.18;7.80;;;5.30;70.50;;;;;;2313809;54;21363;-72
2023/01/23 00:03:36;;;;;;;13.50;7.25;;;5.30;69.80;;;;;;2341892;53;20910;-73
2023/01/23 00:06:05;;;;;;;12.27;7.50;;;5.30;69.80;;;;;;2313331;53;20925;-72
2023/01/23 00:08:31;;;;;;;12.18;8.00;;;5.30;69.80;;;;;;2315789;54;21064;-72
2023/01/23 00:10:57;;;;;;;11.30;7.45;;;5.20;69.70;;;;;;2354254;53;21800;-74
2023/01/23 00:13:24;;;;;;;11.20;7.75;;;5.20;69.60;;;;;;2350619;53;21470;-71
2023/01/23 00:15:50;;;;;;;12.25;7.50;;;5.20;69.60;;;;;;2528679;53;20973;-73
2023/01/23 00:18:16;;;;;;;10.68;6.20;;;5.20;69.60;;;;;;2421709;53;21857;-73
2023/01/23 00:20:44;;;;;;;9.88;6.55;;;5.20;69.70;;;;;;2327982;53;21006;-72
2023/01/23 00:23:11;;;;;;;12.30;7.03;;;5.20;69.70;;;;;;2325965;53;20957;-71
2023/01/23 00:25:37;;;;;;;10.32;6.55;;;5.20;69.80;;;;;;2314165;54;20993;-73
2023/01/23 00:28:03;;;;;;;10.23;6.57;;;5.20;69.80;;;;;;2316469;54;21810;-72
2023/01/23 00:30:31;;;;;;;11.70;6.62;;;5.10;69.70;;;;;;2555146;53;21012;-71
2023/01/23 00:32:59;;;;;;;10.15;6.78;;;5.20;69.80;;;;;;2340563;53;20986;-74
2023/01/23 00:35:25;;;;;;;10.05;6.12;;;5.20;69.80;;;;;;2317978;54;20949;-72
2023/01/23 00:37:52;;;;;;;10.60;5.62;;;5.20;69.90;;;;;;2314989;54;20929;-72
2023/01/23 00:40:18;;;;;;;9.88;6.20;;;5.20;69.90;;;;;;2554971;53;20933;-72
2023/01/23 00:42:45;;;;;;;11.18;6.35;;;5.10;69.90;;;;;;2315092;54;20961;-73
2023/01/23 00:45:11;;;;;;;11.50;6.78;;;5.20;70.00;;;;;;2317215;54;21032;-71
2023/01/23 00:47:37;;;;;;;9.98;6.43;;;5.10;69.80;;;;;;2314239;54;20977;-73
2023/01/23 00:50:04;;;;;;;11.88;7.20;;;5.20;69.90;;;;;;2314316;54;20993;-71
2023/01/23 00:52:30;;;;;;;10.20;6.28;;;5.10;69.70;;;;;;2396054;53;21104;-72
2023/01/23 00:54:57;;;;;;;12.37;6.60;;;5.20;69.80;;;;;;2318768;53;21079;-73
2023/01/23 00:57:23;;;;;;;10.60;6.47;;;5.20;69.80;;;;;;2328788;53;20911;-73
2023/01/23 00:59:49;;;;;;;9.52;6.07;;;5.20;69.80;;;;;;2380449;52;21001;-71
2023/01/23 01:02:16;;;;;;;13.82;7.57;;;5.10;69.70;;;;;;2314396;54;20937;-73
2023/01/23 01:04:42;;;;;;;10.13;6.25;;;5.10;70.40;;;;;;2559802;53;20964;-71
2023/01/23 01:07:08;;;;;;;10.73;6.72;;;5.10;69.60;;;;;;2332815;53;20985;-71
2023/01/23 01:09:35;;;;;;;12.00;6.97;;;5.10;69.60;;;;;;2331832;53;21749;-72
2023/01/23 01:12:02;;;;;;;10.07;5.87;;;5.10;69.60;;;;;;2323260;53;21043;-73
2023/01/23 01:14:31;;;;;;;12.35;7.15;;;5.10;69.60;;;;;;2314298;54;21900;-72
2023/01/23 01:16:57;;;;;;;11.48;6.95;;;5.10;69.70;;;;;;2426651;53;21088;-72
2023/01/23 01:19:23;;;;;;;12.23;7.30;;;5.10;69.70;;;;;;2314228;53;20933;-72
2023/01/23 01:21:50;;;;;;;12.07;7.15;;;5.10;69.60;;;;;;2327924;53;21010;-72
2023/01/23 01:24:16;;;;;;;11.63;7.22;;;5.10;69.60;;;;;;2354903;53;20988;-71
2023/01/23 01:26:42;;;;;;;11.68;7.12;;;5.10;69.60;;;;;;2372093;53;21540;-71
2023/01/23 01:29:08;;;;;;;10.45;6.80;;;5.10;69.50;;;;;;2314129;53;21008;-74
2023/01/23 01:31:34;;;;;;;10.27;6.10;;;5.10;69.50;;;;;;2438643;53;20945;-72
2023/01/23 01:34:02;;;;;;;12.18;6.95;;;5.00;69.40;;;;;;2314337;54;21032;-73
2023/01/23 01:36:28;;;;;;;13.05;7.57;;;5.00;69.40;;;;;;2393445;53;20956;-71
2023/01/23 01:38:55;;;;;;;11.00;7.07;;;5.00;69.60;;;;;;2315476;54;20999;-72
2023/01/23 01:41:21;;;;;;;11.60;7.07;;;5.00;69.70;;;;;;2313856;54;21811;-73
2023/01/23 01:43:52;;;;;;;13.02;7.68;;;5.00;69.40;;;;;;2314899;54;20957;-72
2023/01/23 01:46:24;;;;;;;13.77;7.43;;;5.00;69.40;;;;;;2343176;53;21021;-72
2023/01/23 01:49:34;;;;;;;12.88;7.97;;;5.00;69.40;;;;;;2377527;53;20942;-72
2023/01/23 01:52:03;;;;;;;12.82;7.32;;;4.90;69.00;;;;;;2492468;53;21473;-73
2023/01/23 01:55:02;;;;;;;11.93;6.68;;;4.90;69.20;;;;;;2314555;54;21007;-73
2023/01/23 01:57:34;;;;;;;10.63;6.50;;;4.90;69.20;;;;;;2405410;53;21028;-72
2023/01/23 02:00:08;;;;;;;;;;;4.90;69.30;;;;;;2317981;54;21371;-73
2023/01/23 02:02:36;;;;;;;10.07;5.75;;;4.90;68.90;;;;;;2314345;54;20601;-71
2023/01/23 02:05:04;;;;;;;11.32;6.65;;;4.90;69.70;;;;;;2314640;54;21016;-72
2023/01/23 02:07:57;;;;;;;10.70;6.40;;;4.80;69.50;;;;;;2339885;53;20989;-73
2023/01/23 02:10:23;;;;;;;13.68;7.80;;;4.80;69.50;;;;;;2362425;53;20957;-73
2023/01/23 02:12:50;;;;;;;14.95;7.70;;;4.80;69.40;;;;;;2314457;54;20988;-73
2023/01/23 02:15:17;;;;;;;12.48;7.32;;;4.80;69.40;;;;;;2314471;54;20960;-71
2023/01/23 02:17:43;;;;;;;12.05;7.22;;;4.80;69.40;;;;;;2314482;54;21008;-71
2023/01/23 02:20:23;;;;;;;14.80;7.80;;;4.80;69.40;;;;;;2339442;53;21970;-70
2023/01/23 02:23:14;;;;;;;12.57;6.93;;;4.80;69.30;;;;;;2314730;54;21015;-72
2023/01/23 02:26:15;;;;;;;11.07;6.12;;;4.70;69.10;;;;;;2314566;54;22025;-71
2023/01/23 02:28:47;;;;;;;11.82;6.45;;;4.70;69.10;;;;;;2312960;54;20977;-71
2023/01/23 02:31:13;;;;;;;10.02;5.93;;;4.70;69.40;;;;;;2406513;53;20949;-73
2023/01/23 02:33:45;;;;;;;11.35;6.68;;;4.70;69.50;;;;;;2312968;54;21052;-71
2023/01/23 02:36:12;;;;;;;10.35;6.60;;;4.70;69.50;;;;;;2553384;53;21405;-73
2023/01/23 02:40:31;;;;;;;11.20;6.53;;;4.70;69.50;;;;;;2313030;54;20940;-72
2023/01/23 02:42:57;;;;;;;11.10;6.28;;;4.70;69.10;;;;;;2553745;53;21888;-73
2023/01/23 02:45:24;;;;;;;10.98;6.32;;;4.70;69.60;;;;;;2411168;53;21068;-72
2023/01/23 02:47:50;;;;;;;10.98;6.62;;;4.70;69.70;;;;;;2312761;54;20940;-72
2023/01/23 02:50:24;;;;;;;12.18;6.87;;;4.70;69.70;;;;;;2312378;54;21013;-72
2023/01/23 02:52:53;;;;;;;12.75;6.18;;;4.60;69.60;;;;;;2418215;53;20949;-71
2023/01/23 02:55:21;;;;;;;12.10;7.43;;;4.70;69.60;;;;;;2312843;54;20981;-71
2023/01/23 02:57:47;;;;;;;11.65;6.53;;;4.70;69.50;;;;;;2313476;54;21170;-74
2023/01/23 03:00:18;;;;;;;11.68;7.53;;;4.70;69.50;;;;;;2395149;53;21056;-73
2023/01/23 03:02:49;;;;;;;11.80;7.20;;;4.70;69.40;;;;;;2393721;53;21376;-73
2023/01/23 03:05:16;;;;;;;13.55;7.68;;;4.70;69.40;;;;;;2476977;53;20960;-72
2023/01/23 03:07:44;;;;;;;12.55;7.55;;;4.70;69.40;;;;;;2416721;53;21417;-72
2023/01/23 03:10:11;;;;;;;13.73;7.82;;;4.60;69.30;;;;;;2317865;54;20957;-72
2023/01/23 03:12:41;;;;;;;12.00;6.95;;;4.60;69.30;;;;;;2332697;53;21000;-71
2023/01/23 03:15:08;;;;;;;10.75;7.03;;;4.60;69.20;;;;;;2312687;54;21382;-72
2023/01/23 03:17:35;;;;;;;11.73;7.10;;;4.60;69.30;;;;;;2363115;53;21441;-72
2023/01/23 03:20:03;;;;;;;12.52;7.10;;;4.60;69.40;;;;;;2313207;54;20984;-74
2023/01/23 03:22:29;;;;;;;11.65;6.80;;;4.60;69.40;;;;;;2311831;54;20992;-73
2023/01/23 03:24:56;;;;;;;12.93;7.30;;;4.50;69.30;;;;;;2313344;54;20945;-72
2023/01/23 03:27:22;;;;;;;11.80;7.22;;;4.50;69.30;;;;;;2316282;54;21459;-73
2023/01/23 03:32:37;;;;;;;12.20;6.97;;;4.50;69.50;;;;;;2314430;54;20939;-72
2023/01/23 03:35:04;;;;;;;10.85;6.40;;;4.50;69.50;;;;;;2430277;53;21294;-72
2023/01/23 03:37:31;;;;;;;11.18;6.45;;;4.50;69.50;;;;;;2407101;53;20936;-71
2023/01/23 03:42:45;;;;;;;13.15;7.50;;;4.50;69.60;;;;;;2554741;53;22175;-72
2023/01/23 03:45:11;;;;;;;11.93;6.75;;;4.50;69.60;;;;;;2554494;53;20933;-72
2023/01/23 03:47:38;;;;;;;11.75;6.78;;;4.50;69.60;;;;;;2314341;54;21044;-73
2023/01/23 03:50:06;;;;;;;11.00;6.35;;;4.50;69.60;;;;;;2314346;54;20917;-73
2023/01/23 03:52:33;;;;;;;8.80;5.65;;;4.50;69.70;;;;;;2356169;53;20948;-71
2023/01/23 03:55:00;;;;;;;9.55;5.65;;;4.60;69.90;;;;;;2470853;53;21528;-71
2023/01/23 03:57:26;;;;;;;12.93;6.90;;;4.60;70.00;;;;;;2313634;53;20965;-72
2023/01/23 03:59:55;;;;;;;10.50;6.18;;;4.60;70.00;;;;;;2314538;53;20925;-72
2023/01/23 04:02:22;;;;;;;11.65;6.35;;;4.60;69.90;;;;;;2484719;53;21016;-71
2023/01/23 04:04:49;;;;;;;11.82;6.70;;;4.60;69.90;;;;;;2314784;54;20996;-71
2023/01/23 04:07:15;;;;;;;10.55;6.15;;;4.60;69.80;;;;;;2336633;53;21093;-73
2023/01/23 04:09:41;;;;;;;10.75;6.35;;;4.60;69.80;;;;;;2317350;53;21754;-71
2023/01/23 04:12:07;;;;;;;10.88;6.37;;;4.60;69.80;;;;;;2527724;53;21624;-71
2023/01/23 04:14:36;;;;;;;11.77;6.78;;;4.60;69.90;;;;;;2330914;53;20984;-73
2023/01/23 04:17:05;;;;;;;10.57;5.65;;;4.60;69.90;;;;;;2357135;53;21049;-71
2023/01/23 04:19:32;;;;;;;11.05;6.05;;;4.60;69.90;;;;;;2313772;53;21595;-72
2023/01/23 04:21:58;;;;;;;10.10;5.95;;;4.70;70.00;;;;;;2314846;54;20905;-72
2023/01/23 04:24:25;;;;;;;10.50;6.10;;;4.70;70.00;;;;;;2313851;54;20952;-72
2023/01/23 04:26:51;;;;;;;9.23;5.53;;;4.70;70.00;;;;;;2315228;54;20944;-73
2023/01/23 04:29:17;;;;;;;9.32;5.70;;;4.70;70.10;;;;;;2314375;54;21841;-73
2023/01/23 04:31:44;;;;;;;11.25;6.20;;;4.70;70.10;;;;;;2304978;54;20949;-73
2023/01/23 04:34:10;;;;;;;10.70;6.22;;;4.70;70.10;;;;;;2299179;54;21020;-72
2023/01/23 04:36:38;;;;;;;11.00;6.07;;;4.70;70.00;;;;;;2299626;54;21354;-72
2023/01/23 04:39:04;;;;;;;11.63;6.90;;;4.80;70.00;;;;;;2486918;53;20960;-72
2023/01/23 04:41:32;;;;;;;11.00;6.57;;;4.70;69.80;;;;;;2298675;54;22099;-72
2023/01/23 04:44:18;;;;;;;11.27;6.22;;;4.80;69.80;;;;;;2354412;53;20932;-73
2023/01/23 04:46:48;;;;;;;10.73;6.03;;;4.80;69.80;;;;;;2474326;53;21092;-73
2023/01/23 04:49:15;;;;;;;9.48;5.62;;;4.80;69.80;;;;;;2299143;54;22103;-73
2023/01/23 04:51:43;;;;;;;9.55;5.40;;;4.80;69.90;;;;;;2299401;54;21004;-73
2023/01/23 04:54:10;;;;;;;10.23;5.85;;;4.80;70.00;;;;;;2350919;53;22335;-73
2023/01/23 04:56:36;;;;;;;9.75;5.62;;;4.80;70.00;;;;;;2299690;54;21032;-73
2023/01/23 04:59:02;;;;;;;10.85;6.03;;;4.80;70.00;;;;;;2368634;53;20957;-71
2023/01/23 05:01:29;;;;;;;10.20;6.18;;;4.90;70.10;;;;;;2442120;53;20950;-73
2023/01/23 05:03:56;;;;;;;11.02;6.40;;;4.80;69.90;;;;;;2312226;53;21052;-73
2023/01/23 05:06:22;;;;;;;10.20;6.45;;;4.90;69.80;;;;;;2299565;54;21032;-73
2023/01/23 05:08:48;;;;;;;10.93;6.05;;;4.90;69.80;;;;;;2299639;54;21103;-73
2023/01/23 05:11:17;;;;;;;10.48;5.90;;;4.80;69.70;;;;;;2299369;54;22010;-73
2023/01/23 05:13:43;;;;;;;10.68;5.70;;;4.90;69.80;;;;;;2299858;53;21060;-72
2023/01/23 05:16:09;;;;;;;11.88;6.75;;;4.80;69.70;;;;;;2294644;54;20986;-72
2023/01/23 05:18:37;;;;;;;10.15;5.87;;;4.90;69.80;;;;;;2294761;53;22161;-71
2023/01/23 05:21:03;;;;;;;8.27;5.30;;;4.90;69.80;;;;;;2294509;54;20968;-73
2023/01/23 05:23:29;;;;;;;8.32;4.87;;;4.90;69.80;;;;;;2293754;54;21423;-73
2023/01/23 05:25:55;;;;;;;9.25;5.30;;;4.90;69.80;;;;;;2293463;54;20952;-73
2023/01/23 05:28:22;;;;;;;8.98;5.40;;;4.90;69.80;;;;;;2292674;54;20972;-72
2023/01/23 05:30:48;;;;;;;9.30;5.62;;;4.90;69.80;;;;;;2313277;54;21465;-71
2023/01/23 05:33:14;;;;;;;7.10;4.50;;;4.90;69.80;;;;;;2293645;54;21782;-72
2023/01/23 05:35:41;;;;;;;7.87;4.62;;;4.90;69.80;;;;;;2293219;54;21490;-71
2023/01/23 05:38:07;;;;;;;7.28;4.20;;;4.90;69.80;;;;;;2368601;53;21493;-72
2023/01/23 05:40:33;;;;;;;8.52;5.28;;;4.90;69.80;;;;;;2531132;53;21404;-72
2023/01/23 05:42:59;;;;;;;8.00;5.15;;;4.90;69.90;;;;;;2293558;54;21553;-73
2023/01/23 05:45:25;;;;;;;9.15;5.22;;;4.90;69.80;;;;;;2353735;53;20960;-72
2023/01/23 05:47:54;;;;;;;8.55;4.87;;;5.00;69.90;;;;;;2293578;54;20960;-74
2023/01/23 05:50:22;;;;;;;8.70;5.00;;;5.00;69.80;;;;;;2292820;54;20956;-72
2023/01/23 05:52:48;;;;;;;8.60;5.03;;;4.90;69.60;;;;;;2293724;54;20941;-73
2023/01/23 05:55:15;;;;;;;8.65;4.72;;;5.00;69.70;;;;;;2323411;53;20957;-73
2023/01/23 05:57:41;;;;;;;10.18;5.53;;;5.00;69.80;;;;;;2330368;53;20953;-71
2023/01/23 06:00:08;;;;;;;8.43;4.90;;;5.00;69.80;;;;;;2293276;53;20965;-71
2023/01/23 06:02:34;;;;;;;9.10;5.15;;;5.00;69.80;;;;;;2293454;54;21509;-73
2023/01/23 06:05:00;;;;;;;9.82;5.55;;;5.00;69.80;;;;;;2293698;54;20941;-72
2023/01/23 06:07:27;;;;;;;9.40;5.15;;;5.00;69.70;;;;;;2303768;53;21001;-72
2023/01/23 06:09:53;;;;;;;9.15;5.55;;;5.00;69.60;;;;;;2293446;54;21071;-72
2023/01/23 06:12:22;;;;;;;10.32;6.05;;;5.00;69.60;;;;;;2292719;54;21550;-73
2023/01/23 06:14:48;;;;;;;10.30;6.20;;;5.00;69.50;;;;;;2293820;54;20985;-74
2023/01/23 06:17:15;;;;;;;12.00;5.87;;;5.00;69.40;;;;;;2293314;54;21442;-73
2023/01/23 06:19:41;;;;;;;10.65;6.30;;;5.00;69.40;;;;;;2530641;53;21968;-72
2023/01/23 06:22:07;;;;;;;9.27;6.00;;;4.90;69.30;;;;;;2338322;53;21435;-71
2023/01/23 06:24:34;;;;;;;10.57;5.47;;;5.00;69.40;;;;;;2311804;53;22452;-73
2023/01/23 06:27:00;;;;;;;8.82;5.03;;;5.00;69.40;;;;;;2539694;53;20957;-74
2023/01/23 06:29:26;;;;;;;9.98;5.40;;;4.90;69.40;;;;;;2293064;54;21648;-73
2023/01/23 06:31:52;;;;;;;10.38;5.53;;;4.90;69.40;;;;;;2344650;53;21348;-71
2023/01/23 06:34:19;;;;;;;9.05;5.55;;;4.90;69.40;;;;;;2314597;53;21688;-72
2023/01/23 06:36:46;;;;;;;9.85;5.50;;;4.90;69.40;;;;;;2297236;53;21487;-71
2023/01/23 06:39:12;;;;;;;9.05;5.43;;;4.90;69.50;;;;;;2321441;54;21878;-72
2023/01/23 06:41:38;;;;;;;9.55;5.12;;;4.90;69.50;;;;;;2409852;53;22081;-73
2023/01/23 06:44:06;;;;;;;10.38;5.10;;;4.90;69.50;;;;;;2293452;54;21016;-71
2023/01/23 06:46:32;;;;;;;7.95;4.90;;;4.90;69.50;;;;;;2293263;54;21086;-71
2023/01/23 06:48:59;;;;;;;8.68;4.80;;;4.90;69.60;;;;;;2293790;54;21461;-72
2023/01/23 06:51:25;;;;;;;10.77;5.22;;;4.90;69.60;;;;;;2292964;54;21618;-73
2023/01/23 06:53:51;;;;;;;9.15;5.57;;;4.90;69.70;;;;;;2293677;54;20964;-73
2023/01/23 06:56:18;;;;;;;7.90;4.65;;;5.00;69.90;;;;;;2321554;54;21024;-71
2023/01/23 06:58:44;;;;;;;7.72;4.78;;;5.00;69.90;;;;;;2368370;53;21347;-72
2023/01/23 07:01:14;;;;;;;11.25;6.55;;;5.00;69.90;;;;;;2531436;53;20971;-72
2023/01/23 07:03:41;;;;;;;9.50;5.72;;;5.00;69.90;;;;;;2293584;54;20996;-73
2023/01/23 07:06:08;;;;;;;9.73;5.80;;;5.00;69.90;;;;;;2293321;54;21548;-73
2023/01/23 07:08:34;;;;;;;12.35;7.43;;;5.00;69.90;;;;;;2487415;53;21520;-73
2023/01/23 07:11:01;;;;;;;9.07;5.87;;;5.00;69.90;;;;;;2293625;54;20933;-71
2023/01/23 07:13:27;;;;;;;10.65;5.82;;;5.10;70.00;;;;;;2382510;53;21004;-72
2023/01/23 07:15:53;;;;;;;10.85;6.25;;;5.00;69.90;;;;;;2293524;54;21392;-74
2023/01/23 07:18:20;;;;;;;10.20;6.50;;;5.10;69.90;;;;;;2293327;54;20984;-73
2023/01/23 07:20:46;;;;;;;12.80;7.25;;;5.10;69.90;;;;;;2531464;53;21234;-73
2023/01/23 07:23:12;;;;;;;10.52;5.75;;;5.10;69.70;;;;;;2293401;54;20956;-73
2023/01/23 07:25:38;;;;;;;9.73;5.40;;;5.10;69.60;;;;;;2293195;54;21431;-72
2023/01/23 07:28:05;;;;;;;11.07;5.78;;;5.10;69.60;;;;;;2293345;54;21497;-71
2023/01/23 07:30:31;;;;;;;10.68;5.97;;;5.10;70.30;;;;;;2293598;54;21428;-73
2023/01/23 07:32:58;;;;;;;8.98;5.30;;;5.10;69.70;;;;;;2300764;54;21180;-71
2023/01/23 07:35:24;;;;;;;8.90;5.18;;;5.10;69.70;;;;;;2318518;53;21320;-72
2023/01/23 07:37:50;;;;;;;8.68;4.97;;;5.10;69.70;;;;;;2293734;54;21344;-72
2023/01/23 07:40:17;;;;;;;9.35;5.55;;;5.10;69.70;;;;;;2292495;54;20964;-71
2023/01/23 07:42:45;;;;;;;9.07;5.70;;;5.10;69.80;;;;;;2338752;54;20965;-73
2023/01/23 07:45:11;;;;;;;9.38;5.53;;;5.10;69.80;;;;;;2294191;54;21546;-71
2023/01/23 07:47:40;;;;;;;10.23;5.60;;;5.10;69.70;;;;;;2377597;53;21391;-71
2023/01/23 07:50:10;;;;;;;9.10;4.97;;;5.20;69.80;;;;;;2293119;54;21016;-71
2023/01/23 07:52:37;;;;;;;8.65;5.18;;;5.20;69.80;;;;;;2293612;54;20941;-73
2023/01/23 07:55:04;;;;;;;8.20;4.95;;;5.20;69.80;;;;;;2408277;53;21016;-73
2023/01/23 07:57:30;;;;;;;8.25;4.80;;;5.10;69.60;;;;;;2314469;53;21580;-73
2023/01/23 07:59:56;;;;;;;8.30;4.57;;;5.10;69.60;;;;;;2321503;53;21083;-73
2023/01/23 08:02:22;;;;;;;7.93;4.55;;;5.10;69.60;;;;;;2372315;53;21001;-73
2023/01/23 08:04:49;;;;;;;9.77;5.20;;;5.20;69.80;;;;;;2366019;53;21019;-73
2023/01/23 08:07:15;;;;;;;8.93;4.68;;;5.20;69.80;;;;;;2293511;54;21560;-73
2023/01/23 08:09:44;;;;;;;8.88;5.37;;;5.20;69.90;;;;;;2296409;53;21748;-73
2023/01/23 08:12:11;;;;;;;8.55;5.00;;;5.20;70.50;;;;;;2347138;53;21032;-73
2023/01/23 08:14:38;;;;;;;9.23;5.25;;;5.20;69.80;;;;;;2303352;53;21344;-74
2023/01/23 08:17:04;;;;;;;8.98;5.20;;;5.20;69.80;;;;;;2317957;53;21352;-72
2023/01/23 08:19:30;;;;;;;11.20;5.43;;;5.30;69.80;;;;;;2306376;54;20997;-73
2023/01/23 08:21:56;;;;;;;8.30;4.75;;;5.20;69.70;;;;;;2469501;53;21373;-72
2023/01/23 08:24:23;;;;;;;9.55;4.80;;;5.20;69.70;;;;;;2293104;54;20949;-72
2023/01/23 08:26:49;;;;;;;9.48;4.80;;;5.20;69.80;;;;;;2293874;54;21630;-72
2023/01/23 08:29:15;;;;;;;9.13;4.97;;;5.20;69.80;;;;;;2299112;54;21039;-73
2023/01/23 08:31:41;;;;;;;9.13;4.80;;;5.20;69.80;;;;;;2293125;54;21332;-73
2023/01/23 08:34:08;;;;;;;8.63;4.65;;;5.20;69.80;;;;;;2293645;54;20956;-74
2023/01/23 08:36:34;;;;;;;8.85;4.97;;;5.30;69.80;;;;;;2293435;54;21827;-72
2023/01/23 08:39:00;;;;;;;9.40;5.15;;;5.30;69.80;;;;;;2371644;53;21760;-72
2023/01/23 08:41:26;;;;;;;11.95;5.78;;;5.30;69.90;;;;;;2381606;53;21508;-73
2023/01/23 08:44:05;;;;;;;9.32;5.07;;;5.30;69.90;;;;;;2293898;54;22029;-73
2023/01/23 08:46:31;;;;;;;10.38;5.30;;;5.30;70.50;;;;;;2293787;54;21513;-71
2023/01/23 08:48:57;;;;;;;11.20;6.10;;;5.30;69.80;;;;;;2293592;54;21934;-73
2023/01/23 08:51:25;;;;;;;9.02;5.37;;;5.30;69.80;;;;;;2293197;54;20952;-71
2023/01/23 08:53:52;;;;;;;10.25;5.55;;;5.30;69.90;;;;;;2332015;53;20953;-72
2023/01/23 08:56:20;;;;;;;9.55;5.32;;;5.30;70.00;;;;;;2293711;54;21079;-71
2023/01/23 08:58:47;;;;;;;8.98;5.07;;;5.40;70.10;;;;;;2293732;54;20941;-73
2023/01/23 09:01:18;;;;;;;9.32;5.10;;;5.40;70.10;;;;;;2292556;54;21507;-72
2023/01/23 09:03:44;;;;;;;10.93;5.68;;;5.40;70.00;;;;;;2442102;53;21500;-71
2023/01/23 09:06:11;;;;;;;10.65;5.43;;;5.40;70.00;;;;;;2349753;53;21079;-73
2023/01/23 09:08:37;;;;;;;11.15;6.05;;;5.40;70.10;;;;;;2318676;53;20953;-71
2023/01/23 09:11:04;;;;;;;9.82;5.50;;;5.40;70.00;;;;;;2293529;54;21574;-72
2023/01/23 09:13:30;;;;;;;9.48;5.32;;;5.40;70.00;;;;;;2293313;54;21004;-73
2023/01/23 09:15:57;;;;;;;12.65;6.12;;;5.50;70.10;;;;;;2294459;54;21016;-72
2023/01/23 09:18:24;;;;;;;11.82;6.30;;;5.50;70.00;;;;;;2314613;54;20972;-71
2023/01/23 09:20:51;;;;;;;10.95;6.25;;;5.50;70.00;;;;;;2378943;53;21879;-72
2023/01/23 09:23:17;;;;;;;10.90;5.85;;;5.50;69.90;;;;;;2293461;53;20968;-73
2023/01/23 09:25:44;;;;;;;12.37;6.28;;;5.50;69.90;;;;;;2456348;53;20985;-73
2023/01/23 09:28:10;;;;;;;11.75;5.85;;;5.50;69.90;;;;;;2316563;53;22067;-72
2023/01/23 09:30:36;;;;;;;11.23;6.12;;;5.50;69.90;;;;;;2314994;53;20969;-72
2023/01/23 09:33:02;;;;;;;9.98;5.05;;;5.50;70.00;;;;;;2293733;53;21752;-74
2023/01/23 09:35:29;;;;;;;9.82;4.85;;;5.50;70.00;;;;;;2314605;54;21481;-72
2023/01/23 09:38:01;;;;;;;10.82;5.30;;;5.60;70.20;;;;;;2308461;53;20950;-73
2023/01/23 09:40:37;;;;;;;9.50;4.87;;;5.50;70.10;;;;;;2303158;53;21004;-72
2023/01/23 09:46:13;;;;;;;11.43;5.68;;;5.60;70.20;;;;;;2341880;53;21020;-73
2023/01/23 09:48:43;;;;;;;;;;;5.60;70.00;;;;;;2296645;54;22687;-74
2023/01/23 09:51:21;;;;;;;10.70;5.32;;;5.70;69.70;;;;;;2293404;54;20451;-73
2023/01/23 09:53:48;;;;;;;10.18;5.28;;;5.70;70.00;;;;;;2297298;54;22099;-74
2023/01/23 09:56:26;;;;;;;10.00;5.18;;;5.60;70.00;;;;;;2502026;53;20921;-72
2023/01/23 09:59:01;;;;;;;10.98;5.68;;;5.70;70.00;;;;;;2341040;54;21561;-73
2023/01/23 10:01:29;;;;;;;10.75;5.57;;;5.70;70.10;;;;;;2292801;54;21450;-73
2023/01/23 10:03:57;;;;;;;11.52;5.37;;;5.70;70.20;;;;;;2294733;54;21443;-72
2023/01/23 10:06:24;;;;;;;10.82;5.37;;;5.70;70.30;;;;;;2293882;54;21991;-74
2023/01/23 10:09:20;;;;;;;9.73;5.12;;;5.70;70.30;;;;;;2293777;54;20929;-74
2023/01/23 10:12:03;;;;;;;9.77;5.22;;;5.70;70.10;;;;;;2293531;54;21423;-73
2023/01/23 10:15:02;;;;;;;11.23;5.30;;;5.80;70.10;;;;;;2462822;53;20993;-72
2023/01/23 10:18:32;;;;;;;9.80;5.50;;;5.80;70.10;;;;;;2331880;53;21528;-73
2023/01/23 10:21:19;;;;;;;10.05;5.47;;;5.80;70.00;;;;;;2337574;53;21324;-73
2023/01/23 10:25:18;;;;;;;9.60;5.03;;;5.90;70.10;;;;;;2293381;54;21452;-71
2023/01/23 10:27:46;;;;;;;10.75;5.07;;;5.90;70.20;;;;;;2531553;53;21471;-73
2023/01/23 10:30:33;;;;;;;11.00;5.40;;;6.00;70.60;;;;;;2293618;54;20944;-72
2023/01/23 10:33:20;;;;;;;9.73;5.45;;;6.00;70.50;;;;;;2294746;54;21017;-74
2023/01/23 10:35:55;;;;;;;10.63;5.07;;;6.10;70.60;;;;;;2293502;54;21811;-73
2023/01/23 10:38:38;;;;;;;10.48;5.45;;;6.10;70.90;;;;;;2496227;53;20983;-74
2023/01/23 10:41:12;;;;;;;8.85;5.00;;;6.10;70.80;;;;;;2376503;53;21524;-73
2023/01/23 10:43:41;;;;;;;9.70;5.22;;;6.20;71.00;;;;;;2293847;54;21542;-73
2023/01/23 10:46:18;;;;;;;9.32;5.30;;;6.20;71.10;;;;;;2293559;54;21020;-74
2023/01/23 10:48:49;;;;;;;10.85;5.75;;;6.30;71.20;;;;;;2305014;54;21396;-74
2023/01/23 10:52:34;;;;;;;9.50;5.80;;;6.40;71.20;;;;;;2293177;54;21568;-72
2023/01/23 10:55:01;;;;;;;9.52;5.12;;;6.40;70.10;;;;;;2293419;54;21441;-73
2023/01/23 10:57:29;;;;;;;8.75;4.72;;;6.40;70.60;;;;;;2388034;53;22025;-73
2023/01/23 11:00:02;;;;;;;9.57;4.95;;;6.50;70.70;;;;;;2293822;54;21645;-74
2023/01/23 11:02:36;;;;;;;10.40;5.45;;;6.50;70.50;;;;;;2293208;54;20976;-72
2023/01/23 11:05:30;;;;;;;10.63;5.43;;;6.50;70.40;;;;;;2293925;54;21578;-74
2023/01/23 11:07:57;;;;;;;9.65;4.82;;;6.60;70.60;;;;;;2519104;53;21869;-74
2023/01/23 11:10:23;;;;;;;9.00;5.10;;;6.60;70.50;;;;;;2293678;54;21418;-73
2023/01/23 11:12:51;;;;;;;9.98;5.43;;;6.60;70.40;;;;;;2293389;54;21586;-74
2023/01/23 11:15:28;;;;;;;9.48;5.05;;;6.70;70.40;;;;;;2419147;53;21068;-71
2023/01/23 11:17:56;;;;;;;10.27;5.53;;;6.70;70.30;;;;;;2294393;54;20948;-70
2023/01/23 11:20:36;;;;;;;11.35;6.10;;;6.70;70.40;;;;;;2329389;53;20936;-73
2023/01/23 11:23:24;;;;;;;9.98;5.43;;;6.80;70.00;;;;;;2299394;54;21025;-72
2023/01/23 11:25:51;;;;;;;9.88;5.68;;;6.80;70.10;;;;;;2294643;54;21028;-73
2023/01/23 11:28:29;;;;;;;11.82;6.12;;;6.80;70.10;;;;;;2294421;54;21024;-73
2023/01/23 11:31:18;;;;;;;11.10;6.47;;;6.80;69.80;;;;;;2294807;54;20949;-73
2023/01/23 11:34:02;;;;;;;13.10;6.95;;;6.80;69.30;;;;;;2391770;53;21403;-73
2023/01/23 11:36:50;;;;;;;11.80;6.40;;;6.80;69.40;;;;;;2294832;54;22000;-74
2023/01/23 11:39:36;;;;;;;11.85;5.95;;;6.80;69.40;;;;;;2429227;53;20956;-72
2023/01/23 11:42:03;;;;;;;11.57;6.10;;;6.80;69.40;;;;;;2334673;53;20968;-72
2023/01/23 11:44:29;;;;;;;13.40;7.20;;;6.80;69.60;;;;;;2293123;54;21316;-73
2023/01/23 11:50:36;;;;;;;12.52;7.10;;;6.80;69.70;;;;;;2389294;53;21843;-73
2023/01/23 11:57:06;;;;;;;10.18;5.22;;;6.80;69.40;;;;;;2293630;54;20964;-73
2023/01/23 11:59:41;;;;;;;8.65;4.37;;;6.80;68.70;;;;;;2304073;54;22037;-73
2023/01/23 12:02:36;;;;;;;9.82;4.95;;;6.70;69.50;;;;;;2294232;54;20956;-72
2023/01/23 12:06:39;;;;;;;10.52;5.80;;;6.70;69.20;;;;;;2294007;54;20947;-72
2023/01/23 12:09:15;;;;;;;11.50;5.97;;;6.80;69.50;;;;;;2293263;54;21000;-71
2023/01/23 12:16:56;;;;;;;13.62;6.57;;;6.70;69.50;;;;;;2293003;54;21416;-72
2023/01/23 12:19:52;;;;;;;9.05;5.10;;;6.80;69.10;;;;;;2331183;53;21545;-73
2023/01/23 12:22:41;;;;;;;10.20;4.70;;;6.80;69.50;;;;;;2293356;54;20956;-71
2023/01/23 12:25:17;;;;;;;10.05;5.50;;;6.80;69.80;;;;;;2340739;53;20962;-73
2023/01/23 12:27:45;;;;;;;9.85;5.90;;;6.80;69.90;;;;;;2370654;53;20956;-73
2023/01/23 12:30:23;;;;;;;12.07;6.82;;;6.80;70.10;;;;;;2322444;54;21064;-73
2023/01/23 12:33:07;;;;;;;13.35;7.25;;;6.90;69.80;;;;;;2386315;53;20933;-72
2023/01/23 12:36:37;;;;;;;11.88;6.15;;;6.90;69.70;;;;;;2314405;54;21020;-73
2023/01/23 12:41:58;;;;;;;12.13;6.57;;;6.90;69.60;;;;;;2294696;54;22069;-74
2023/01/23 12:44:29;;;;;;;11.25;5.20;;;6.90;69.70;;;;;;2408469;53;20932;-74
2023/01/23 12:47:11;;;;;;;11.50;6.12;;;6.90;69.80;;;;;;2362909;53;20945;-73
2023/01/23 12:50:01;;;;;;;12.97;6.60;;;7.00;69.70;;;;;;2428742;53;21088;-73
2023/01/23 12:52:37;;;;;;;10.68;5.78;;;7.00;69.70;;;;;;2294522;54;22242;-73
2023/01/23 12:55:15;;;;;;;11.38;6.55;;;7.00;69.80;;;;;;2294856;53;20956;-73
2023/01/23 12:57:50;;;;;;;12.52;6.78;;;7.00;69.70;;;;;;2294791;54;20980;-73
2023/01/23 13:00:44;;;;;;;12.32;6.37;;;7.00;69.80;;;;;;2294347;54;20976;-74
2023/01/23 13:05:03;;;;;;;12.48;6.82;;;7.10;69.60;;;;;;2530810;53;21455;-74
2023/01/23 13:07:45;;;;;;;11.15;6.20;;;7.10;69.30;;;;;;2293672;54;21048;-74
2023/01/23 13:12:00;;;;;;;13.00;7.40;;;7.00;69.30;;;;;;2310560;53;21025;-73
2023/01/23 13:14:42;;;;;;;12.57;5.72;;;7.00;68.50;;;;;;2293284;54;21657;-73
2023/01/23 13:18:03;;;;;;;16.30;7.45;;;7.00;69.00;;;;;;2295400;54;21101;-74
2023/01/23 13:31:02;;;;;;;14.13;7.75;;;7.00;68.50;;;;;;2354797;53;21056;-74
2023/01/23 13:33:50;;;;;;;11.45;6.07;;;7.00;68.50;;;;;;2294580;54;21008;-73
2023/01/23 13:36:33;;;;;;;13.02;6.95;;;7.00;68.70;;;;;;2294513;54;20977;-74
2023/01/23 13:39:00;;;;;;;12.13;6.57;;;6.90;69.10;;;;;;2294676;54;20933;-73
2023/01/23 13:41:28;;;;;;;13.02;7.12;;;6.90;69.00;;;;;;2294550;54;21528;-73
2023/01/23 13:45:12;;;;;;;13.15;6.40;;;6.90;69.00;;;;;;2294895;54;21099;-73
2023/01/23 13:50:32;;;;;;;14.27;7.03;;;6.80;69.10;;;;;;2294324;54;21008;-74
2023/01/23 13:58:33;;;;;;;12.02;6.45;;;6.80;69.10;;;;;;2294203;54;20953;-73
2023/01/23 14:06:53;;;;;;;10.40;5.53;;;6.80;69.30;;;;;;2294927;54;20961;-73